^^
Station Historical Data
Daily Summary for Nil La, TWC- Units:  English    Metric   Both
« Previous Day
Next Day »
Daily Weekly Monthly Yearly Custom
  High: Low: Average:
Temperature: TemperatureC °F 10.2 °F 10.7 °F
Dew Point: DewpointC °F 9.0 °F 9.5 °F
Humidity: Humidity% 92% 91%
Wind Speed: WindSpeedKMHmph 0.0mph 2.1mph
Wind Gust: WindSpeedGustKMHmph - -
Wind- - SSW
Pressure: PressurehPa in 1003.3 in -
Precipitation: 3.0 in    
Historical Graphs
 
 
Tabular Data for Nil La, TWC-
Time Temperature Dew Point Pressure Wind Wind Speed Wind Gust Humidity Rainfall Rate (Hourly) solar Conditions
TemperatureC °F DewpointC °F PressurehPa in Calm     Humidity% HourlyPrecipMM in SoftwareType W/m2 Conditions
00:04 10.2 °F 9.0 °F 1010.2 in WNW 2.9 mph 5.6 mph 92% 0.2 in WeatherDisplay:10.37 W/m2 -DZ
00:09 10.3 °F 9.1 °F 1010.2 in SW 0.3 mph 7.4 mph 92% 0.2 in WeatherDisplay:10.37 W/m2 -DZ
00:14 10.3 °F 9.1 °F 1010.1 in NNW 1.4 mph 8.0 mph 92% 0.2 in WeatherDisplay:10.37 W/m2 -DZ
00:19 10.3 °F 9.1 °F 1010.1 in Calm     92% 0.2 in WeatherDisplay:10.37 W/m2 -DZ
00:24 10.3 °F 9.1 °F 1009.9 in West 0.6 mph 5.6 mph 92% 0.2 in WeatherDisplay:10.37 W/m2 -DZ
00:29 10.3 °F 9.1 °F 1009.8 in East 4.3 mph 9.7 mph 92% 0.2 in WeatherDisplay:10.37 W/m2 -DZ
00:34 10.3 °F 9.1 °F 1009.9 in NE 1.8 mph 5.6 mph 92% 0.2 in WeatherDisplay:10.37 W/m2 -DZ
00:39 10.3 °F 9.1 °F 1009.8 in SW 2.7 mph 8.0 mph 92% 0.2 in WeatherDisplay:10.37 W/m2 -DZ
00:44 10.4 °F 9.2 °F 1009.7 in WNW 2.4 mph 9.3 mph 92% 0.2 in WeatherDisplay:10.37 W/m2 -DZ
00:49 10.4 °F 9.2 °F 1009.5 in Calm   3.7 mph 92% 0.2 in WeatherDisplay:10.37 W/m2 -DZ
00:54 10.4 °F 9.2 °F 1009.5 in Calm   1.9 mph 92% 0.2 in WeatherDisplay:10.37 W/m2 -DZ
00:59 10.4 °F 9.2 °F 1009.1 in West 5.5 mph 12.9 mph 92% 0.2 in WeatherDisplay:10.37 W/m2 -DZ
01:04 10.4 °F 9.2 °F 1009.1 in Calm   13.0 mph 92% 0.0 in WeatherDisplay:10.37 W/m2 -DZ
01:09 10.4 °F 9.2 °F 1009.2 in WSW 4.3 mph 17.7 mph 92% 0.0 in WeatherDisplay:10.37 W/m2 -DZ
01:14 10.4 °F 9.2 °F 1009.2 in ESE 4.2 mph 9.3 mph 92% 0.0 in WeatherDisplay:10.37 W/m2 -DZ
01:19 10.5 °F 9.3 °F 1008.9 in SW 4.5 mph 19.3 mph 92% 0.0 in WeatherDisplay:10.37 W/m2 -DZ
01:24 10.5 °F 9.3 °F 1009.1 in Calm     92% 0.0 in WeatherDisplay:10.37 W/m2 -DZ
01:29 10.5 °F 9.3 °F 1008.8 in WSW 6.0 mph 14.8 mph 92% 0.0 in WeatherDisplay:10.37 W/m2 -DZ
01:34 10.5 °F 9.3 °F 1008.6 in WNW 2.9 mph 9.3 mph 92% 0.0 in WeatherDisplay:10.37 W/m2 -DZ
01:39 10.5 °F 9.3 °F 1008.4 in SW 3.4 mph 14.5 mph 92% 0.0 in WeatherDisplay:10.37 W/m2 -DZ
01:44 10.6 °F 9.3 °F 1008.3 in SW 2.7 mph 7.4 mph 92% 0.0 in WeatherDisplay:10.37 W/m2 -DZ
01:49 10.6 °F 9.3 °F 1008.1 in SE 3.5 mph 18.5 mph 92% 0.0 in WeatherDisplay:10.37 W/m2 -DZ
01:54 10.6 °F 9.3 °F 1008.1 in WSW 2.3 mph 5.6 mph 92% 0.0 in WeatherDisplay:10.37 W/m2 -DZ
01:59 10.6 °F 9.3 °F 1008.2 in WNW 2.6 mph 12.9 mph 92% 0.0 in WeatherDisplay:10.37 W/m2 -DZ
02:04 10.6 °F 9.4 °F 1008.0 in North 1.4 mph 9.3 mph 92% 0.0 in WeatherDisplay:10.37 W/m2 -DZ
02:09 10.6 °F 9.4 °F 1007.9 in ESE 0.8 mph 5.6 mph 92% 0.0 in WeatherDisplay:10.37 W/m2 -DZ
02:14 10.6 °F 9.4 °F 1007.6 in SSW 1.4 mph 4.8 mph 92% 0.2 in WeatherDisplay:10.37 W/m2 -DZ
02:19 10.7 °F 9.4 °F 1007.6 in West 3.1 mph 13.0 mph 92% 0.2 in WeatherDisplay:10.37 W/m2 -DZ
02:24 10.7 °F 9.4 °F 1007.3 in WSW 1.4 mph 14.8 mph 92% 0.2 in WeatherDisplay:10.37 W/m2 -DZ
02:29 10.7 °F 9.4 °F 1007.2 in SSE 3.5 mph 8.0 mph 92% 0.2 in WeatherDisplay:10.37 W/m2 -DZ
02:34 10.7 °F 9.4 °F 1007.1 in SE 6.4 mph 14.5 mph 92% 0.2 in WeatherDisplay:10.37 W/m2 -DZ
02:39 10.7 °F 9.4 °F 1006.9 in West 6.0 mph 14.8 mph 92% 0.2 in WeatherDisplay:10.37 W/m2 -DZ
02:44 10.7 °F 9.4 °F 1006.8 in East 1.1 mph 5.6 mph 92% 0.2 in WeatherDisplay:10.37 W/m2 -DZ
02:49 10.7 °F 9.5 °F 1006.8 in SW 2.9 mph 6.4 mph 92% 0.2 in WeatherDisplay:10.37 W/m2 -DZ
02:54 10.7 °F 9.5 °F 1006.6 in WSW 2.1 mph 7.4 mph 92% 0.2 in WeatherDisplay:10.37 W/m2 -DZ
02:59 10.7 °F 9.5 °F 1006.4 in WNW 7.1 mph 18.5 mph 92% 0.4 in WeatherDisplay:10.37 W/m2 -DZ
03:04 10.7 °F 9.5 °F 1006.5 in South 1.1 mph 6.4 mph 92% 0.4 in WeatherDisplay:10.37 W/m2 -RA
03:09 10.8 °F 9.6 °F 1006.5 in SSE 3.5 mph 13.0 mph 92% 0.4 in WeatherDisplay:10.37 W/m2 -RA
03:14 10.8 °F 9.6 °F 1006.3 in North 3.4 mph 8.0 mph 92% 0.4 in WeatherDisplay:10.37 W/m2 -RA
03:19 10.8 °F 9.6 °F 1006.1 in SSE 2.4 mph 9.3 mph 92% 0.4 in WeatherDisplay:10.37 W/m2 -RA
03:24 10.8 °F 9.6 °F 1006.0 in NE 2.6 mph 14.8 mph 92% 0.4 in WeatherDisplay:10.37 W/m2 -RA
03:29 10.8 °F 9.6 °F 1005.9 in North 1.9 mph 13.0 mph 92% 0.4 in WeatherDisplay:10.37 W/m2 -RA
03:34 10.8 °F 9.6 °F 1005.7 in SW 6.0 mph 18.5 mph 92% 0.4 in WeatherDisplay:10.37 W/m2 -RA
03:39 10.9 °F 9.7 °F 1005.9 in SE 2.4 mph 9.3 mph 92% 0.4 in WeatherDisplay:10.37 W/m2 -RA
03:44 10.9 °F 9.7 °F 1005.7 in NNW 5.0 mph 16.7 mph 92% 0.4 in WeatherDisplay:10.37 W/m2 -RA
03:49 10.9 °F 9.7 °F 1005.6 in NE 0.2 mph 7.4 mph 92% 0.4 in WeatherDisplay:10.37 W/m2 -RA
03:54 11.0 °F 9.7 °F 1005.5 in NNW 0.8 mph 4.8 mph 92% 0.6 in WeatherDisplay:10.37 W/m2 -RA
03:59 11.0 °F 9.7 °F 1005.5 in Calm   1.9 mph 92% 0.4 in WeatherDisplay:10.37 W/m2 -RA
04:04 11.1 °F 9.8 °F 1005.4 in SSW 1.4 mph 7.4 mph 92% 0.4 in WeatherDisplay:10.37 W/m2 -RA
04:09 11.1 °F 9.8 °F 1005.4 in ENE 1.0 mph 6.4 mph 92% 0.6 in WeatherDisplay:10.37 W/m2 -RA
04:14 11.1 °F 9.8 °F 1005.3 in NNW 2.1 mph 7.4 mph 92% 0.4 in WeatherDisplay:10.37 W/m2 -RA
04:19 11.1 °F 9.8 °F 1005.2 in South 1.4 mph 5.6 mph 92% 0.6 in WeatherDisplay:10.37 W/m2 -RA
04:24 11.2 °F 9.9 °F 1005.2 in NNW 3.7 mph 9.7 mph 92% 0.6 in WeatherDisplay:10.37 W/m2 -RA
04:29 11.1 °F 9.8 °F 1005.0 in South 2.4 mph 11.3 mph 92% 0.8 in WeatherDisplay:10.37 W/m2 -RA
04:34 11.1 °F 9.8 °F 1004.9 in NW 1.4 mph 6.4 mph 92% 0.8 in WeatherDisplay:10.37 W/m2 -RA
04:39 11.2 °F 9.9 °F 1004.7 in NNW 0.8 mph 6.4 mph 92% 1.0 in WeatherDisplay:10.37 W/m2 -RA
04:44 11.2 °F 9.9 °F 1004.7 in SSW 1.0 mph 7.4 mph 92% 1.0 in WeatherDisplay:10.37 W/m2 -RA
04:49 11.2 °F 9.9 °F 1004.6 in Calm     92% 1.2 in WeatherDisplay:10.37 W/m2 -RA
04:54 11.2 °F 9.9 °F 1004.5 in SE 0.2 mph 3.2 mph 92% 1.0 in WeatherDisplay:10.37 W/m2 -RA
04:59 11.2 °F 9.9 °F 1004.4 in NNW 1.0 mph 3.7 mph 92% 1.2 in WeatherDisplay:10.37 W/m2 -RA
05:04 11.2 °F 9.9 °F 1004.4 in Calm   3.7 mph 92% 1.2 in WeatherDisplay:10.37 W/m2 -RA
05:09 11.3 °F 10.0 °F 1004.2 in WNW 0.2 mph 3.2 mph 92% 1.0 in WeatherDisplay:10.37 W/m2 -RA
05:14 11.3 °F 10.0 °F 1004.2 in Calm     92% 1.0 in WeatherDisplay:10.37 W/m2 -RA
05:19 11.3 °F 10.1 °F 1004.1 in NNW 2.3 mph 6.4 mph 92% 0.8 in WeatherDisplay:10.37 W/m2 -RA
05:24 11.3 °F 10.1 °F 1003.9 in East 1.0 mph 3.7 mph 92% 0.8 in WeatherDisplay:10.37 W/m2 -RA
05:29 11.4 °F 10.1 °F 1003.8 in East 0.6 mph 7.4 mph 92% 0.6 in WeatherDisplay:10.37 W/m2 -RA
05:34 11.4 °F 10.2 °F 1003.8 in NNE 3.1 mph 13.0 mph 92% 0.6 in WeatherDisplay:10.37 W/m2 -RA
05:39 11.4 °F 10.2 °F 1003.7 in West 1.1 mph 5.6 mph 92% 0.6 in WeatherDisplay:10.37 W/m2 -RA
05:44 11.5 °F 10.2 °F 1003.6 in SSW 2.3 mph 7.4 mph 92% 0.6 in WeatherDisplay:10.37 W/m2 -RA
05:49 11.5 °F 10.2 °F 1003.7 in SW 2.7 mph 13.0 mph 92% 0.4 in WeatherDisplay:10.37 W/m2 -RA
05:54 11.6 °F 10.3 °F 1003.6 in NE 0.3 mph 3.2 mph 92% 0.4 in WeatherDisplay:10.37 W/m2 -RA
05:59 11.6 °F 10.3 °F 1003.5 in South 6.0 mph 19.3 mph 92% 0.4 in WeatherDisplay:10.37 W/m2 -RA
06:04 11.6 °F 10.3 °F 1003.4 in Calm     92% 0.6 in WeatherDisplay:10.37 W/m2 -RA
06:09 11.6 °F 10.3 °F 1003.4 in Calm   3.7 mph 92% 0.6 in WeatherDisplay:10.37 W/m2 -RA
06:14 11.6 °F 10.3 °F 1003.3 in ENE 1.9 mph 9.3 mph 92% 0.8 in WeatherDisplay:10.37 W/m2 -RA
Tuulensuunkaari, Veikkola, Suomi
Compliments of Weather Underground - 1.75 mb